AXM132 WMKA-WMKP
Flight info
| Callsign | AXM132 |
|---|---|
| Flight time | 0h 14m |
| Altitude | 10000 |
| Route | OMBUL DCT LUNTU |
| Aircraft | A320/M-SDE3FGHIRWY/LB1 |
Departure
| Time | 2026-05-04 07:27 |
|---|---|
| Airport | Sultan Abdul Halim Airport (WMKA) |
Arrival
| Time | 2026-05-04 07:42 |
|---|---|
| Airport | Penang International Airport (WMKP) |
| Time | Latitude | Longitude | Altitude | Speed | Heading |
|---|---|---|---|---|---|
| 2026-05-04 07:05 | 6.19147 | 100.39636 | 20 ft | 0 kts | 313° |
| 2026-05-04 07:17 | 6.19147 | 100.39637 | 22 ft | 2 kts | 313° |
| 2026-05-04 07:18 | 6.19130 | 100.39655 | 20 ft | 4 kts | 313° |
| 2026-05-04 07:18 | 6.19111 | 100.39675 | 20 ft | 4 kts | 317° |
| 2026-05-04 07:18 | 6.19091 | 100.39692 | 20 ft | 4 kts | 309° |
| 2026-05-04 07:18 | 6.19082 | 100.39700 | 22 ft | 2 kts | 221° |
| 2026-05-04 07:19 | 6.19086 | 100.39704 | 20 ft | 0 kts | 221° |
| 2026-05-04 07:22 | 6.19058 | 100.39929 | 23 ft | 14 kts | 82° |
| 2026-05-04 07:22 | 6.19001 | 100.40003 | 21 ft | 14 kts | 134° |
| 2026-05-04 07:23 | 6.19018 | 100.40074 | 20 ft | 11 kts | 44° |
| 2026-05-04 07:23 | 6.19093 | 100.40143 | 20 ft | 21 kts | 42° |
| 2026-05-04 07:23 | 6.19209 | 100.40249 | 21 ft | 24 kts | 44° |
| 2026-05-04 07:23 | 6.19337 | 100.40367 | 20 ft | 26 kts | 41° |
| 2026-05-04 07:24 | 6.19477 | 100.40494 | 20 ft | 26 kts | 43° |
| 2026-05-04 07:24 | 6.19600 | 100.40607 | 20 ft | 23 kts | 43° |
| 2026-05-04 07:24 | 6.19701 | 100.40699 | 21 ft | 18 kts | 43° |
| 2026-05-04 07:24 | 6.19778 | 100.40705 | 21 ft | 0 kts | 322° |
| 2026-05-04 07:26 | 6.19478 | 100.40286 | 21 ft | 106 kts | 222° |
| 2026-05-04 07:27 | 6.18769 | 100.39646 | 45 ft | 163 kts | 223° |
| 2026-05-04 07:27 | 6.17958 | 100.38909 | 894 ft | 153 kts | 222° |
| 2026-05-04 07:27 | 6.17108 | 100.38153 | 1261 ft | 184 kts | 222° |
| 2026-05-04 07:27 | 6.16061 | 100.37229 | 1503 ft | 214 kts | 221° |
| 2026-05-04 07:28 | 6.14694 | 100.36422 | 1942 ft | 241 kts | 195° |
| 2026-05-04 07:28 | 6.12985 | 100.36182 | 2517 ft | 262 kts | 182° |
| 2026-05-04 07:28 | 6.11140 | 100.36177 | 3434 ft | 269 kts | 179° |
| 2026-05-04 07:28 | 6.09254 | 100.36235 | 4405 ft | 274 kts | 178° |
| 2026-05-04 07:29 | 6.07333 | 100.36279 | 5396 ft | 278 kts | 179° |
| 2026-05-04 07:29 | 6.05390 | 100.36287 | 6376 ft | 281 kts | 180° |
| 2026-05-04 07:29 | 6.03419 | 100.36261 | 7299 ft | 286 kts | 181° |
| 2026-05-04 07:29 | 6.01418 | 100.36208 | 8184 ft | 290 kts | 181° |
| 2026-05-04 07:30 | 5.99385 | 100.36139 | 9038 ft | 294 kts | 182° |
| 2026-05-04 07:30 | 5.97319 | 100.36060 | 9735 ft | 300 kts | 182° |
| 2026-05-04 07:30 | 5.95226 | 100.35980 | 10162 ft | 310 kts | 181° |
| 2026-05-04 07:30 | 5.92941 | 100.35842 | 9934 ft | 338 kts | 187° |
| 2026-05-04 07:31 | 5.90668 | 100.35495 | 9806 ft | 324 kts | 188° |
| 2026-05-04 07:31 | 5.88484 | 100.35159 | 9680 ft | 311 kts | 188° |
| 2026-05-04 07:33 | 5.74093 | 100.32982 | 8802 ft | 296 kts | 188° |
| 2026-05-04 07:33 | 5.72061 | 100.32660 | 8676 ft | 295 kts | 188° |
| 2026-05-04 07:33 | 5.70031 | 100.32363 | 8542 ft | 294 kts | 184° |
| 2026-05-04 07:33 | 5.67994 | 100.32462 | 8426 ft | 293 kts | 169° |
| 2026-05-04 07:34 | 5.65991 | 100.32843 | 8301 ft | 293 kts | 169° |
| 2026-05-04 07:34 | 5.63990 | 100.33221 | 8168 ft | 292 kts | 169° |
| 2026-05-04 07:34 | 5.61993 | 100.33595 | 7829 ft | 291 kts | 169° |
| 2026-05-04 07:34 | 5.60006 | 100.33966 | 7442 ft | 289 kts | 169° |
| 2026-05-04 07:35 | 5.58034 | 100.34334 | 7042 ft | 287 kts | 169° |
| 2026-05-04 07:35 | 5.56103 | 100.34807 | 6646 ft | 285 kts | 158° |
| 2026-05-04 07:35 | 5.54394 | 100.35769 | 6247 ft | 281 kts | 141° |
| 2026-05-04 07:35 | 5.53013 | 100.37144 | 5841 ft | 279 kts | 132° |
| 2026-05-04 07:36 | 5.51710 | 100.38575 | 5439 ft | 276 kts | 132° |
| 2026-05-04 07:36 | 5.50415 | 100.39987 | 5040 ft | 274 kts | 132° |
| 2026-05-04 07:38 | 5.41201 | 100.38413 | 2613 ft | 196 kts | 226° |
| 2026-05-04 07:38 | 5.40286 | 100.37487 | 2345 ft | 178 kts | 225° |
| 2026-05-04 07:38 | 5.39428 | 100.36654 | 2131 ft | 165 kts | 224° |
| 2026-05-04 07:38 | 5.38620 | 100.35884 | 1939 ft | 156 kts | 224° |
| 2026-05-04 07:39 | 5.37850 | 100.35156 | 1751 ft | 150 kts | 223° |
| 2026-05-04 07:39 | 5.37084 | 100.34449 | 1576 ft | 150 kts | 223° |
| 2026-05-04 07:39 | 5.36323 | 100.33747 | 1392 ft | 148 kts | 223° |
| 2026-05-04 07:39 | 5.35569 | 100.33049 | 1210 ft | 147 kts | 223° |
| 2026-05-04 07:40 | 5.34829 | 100.32367 | 1029 ft | 143 kts | 223° |
| 2026-05-04 07:40 | 5.34096 | 100.31694 | 845 ft | 142 kts | 223° |
| 2026-05-04 07:40 | 5.33366 | 100.31024 | 678 ft | 142 kts | 223° |
| 2026-05-04 07:40 | 5.32638 | 100.30359 | 503 ft | 142 kts | 223° |
| 2026-05-04 07:41 | 5.31911 | 100.29694 | 338 ft | 141 kts | 222° |
| 2026-05-04 07:41 | 5.31191 | 100.29024 | 183 ft | 142 kts | 222° |
| 2026-05-04 07:41 | 5.30472 | 100.28371 | 27 ft | 130 kts | 221° |
| 2026-05-04 07:41 | 5.29904 | 100.27855 | 26 ft | 87 kts | 222° |
| 2026-05-04 07:42 | 5.29580 | 100.27563 | 24 ft | 41 kts | 222° |
| 2026-05-04 07:42 | 5.29358 | 100.27360 | 24 ft | 45 kts | 222° |
| 2026-05-04 07:42 | 5.29139 | 100.27161 | 27 ft | 32 kts | 222° |
| 2026-05-04 07:42 | 5.29063 | 100.27041 | 27 ft | 13 kts | 300° |
| 2026-05-04 07:43 | 5.29092 | 100.27016 | 26 ft | 5 kts | 316° |
| 2026-05-04 07:43 | 5.29119 | 100.26988 | 24 ft | 9 kts | 311° |
| 2026-05-04 07:43 | 5.29168 | 100.26932 | 25 ft | 14 kts | 311° |
| 2026-05-04 07:43 | 5.29242 | 100.26850 | 24 ft | 17 kts | 310° |
| 2026-05-04 07:44 | 5.29212 | 100.26776 | 24 ft | 14 kts | 222° |
| 2026-05-04 07:44 | 5.29181 | 100.26697 | 23 ft | 11 kts | 308° |
| 2026-05-04 07:44 | 5.29217 | 100.26654 | 26 ft | 0 kts | 311° |